createdAt,value
2023-05-03T00:01:30.546Z,65.22
2023-05-03T00:03:58.193Z,62.21
2023-05-03T00:06:26.863Z,62.59
2023-05-03T00:08:54.608Z,62.27
2023-05-03T00:11:23.727Z,62.02
2023-05-03T00:13:51.439Z,63.13
2023-05-03T00:16:20.075Z,67.33
2023-05-03T00:18:49.132Z,65.13
2023-05-03T00:21:17.093Z,63.96
2023-05-03T00:23:44.798Z,63.95
2023-05-03T00:26:12.480Z,62.77
2023-05-03T00:28:41.566Z,65.46
2023-05-03T00:31:09.720Z,62.01
2023-05-03T00:33:37.517Z,64.38
2023-05-03T00:36:09.429Z,65.45
2023-05-03T00:38:37.176Z,62.80
2023-05-03T00:41:04.991Z,66.74
2023-05-03T00:43:32.965Z,65.41
2023-05-03T00:46:15.219Z,66.16
2023-05-03T00:48:44.873Z,67.84
2023-05-03T00:51:14.617Z,65.78
2023-05-03T00:53:42.666Z,64.82
2023-05-03T00:56:11.259Z,67.33
2023-05-03T00:58:40.486Z,66.37
2023-05-03T01:01:09.894Z,63.43
2023-05-03T01:03:41.491Z,64.36
2023-05-03T01:06:12.839Z,64.58
2023-05-03T01:08:46.114Z,66.43
2023-05-03T01:11:16.187Z,66.17
2023-05-03T01:13:50.885Z,65.56
2023-05-03T01:16:44.393Z,65.27
2023-05-03T01:19:20.159Z,64.14
2023-05-03T01:21:49.841Z,65.47
2023-05-03T01:24:20.108Z,66.51
2023-05-03T01:26:49.212Z,65.42
2023-05-03T01:29:16.906Z,66.03
2023-05-03T01:31:47.542Z,65.86
2023-05-03T01:34:23.964Z,65.58
2023-05-03T01:36:52.037Z,64.59
2023-05-03T01:39:22.600Z,65.95
2023-05-03T01:41:52.512Z,67.57
2023-05-03T01:44:21.053Z,67.03
2023-05-03T01:46:49.764Z,66.63
2023-05-03T01:49:17.460Z,67.15
2023-05-03T01:51:45.139Z,67.93
2023-05-03T01:54:12.924Z,70.39
2023-05-03T01:56:41.156Z,67.89
2023-05-03T01:59:10.808Z,67.94
2023-05-03T02:01:38.616Z,65.86
2023-05-03T02:04:06.397Z,67.25
2023-05-03T02:06:34.128Z,71.99
2023-05-03T02:09:02.056Z,68.16
2023-05-03T02:11:29.698Z,68.07
2023-05-03T02:16:57.712Z,71.12
2023-05-03T02:19:25.456Z,69.88
2023-05-03T02:21:53.562Z,67.36
2023-05-03T02:24:21.285Z,68.39
2023-05-03T02:26:48.945Z,68.20
2023-05-03T02:29:16.620Z,67.88
2023-05-03T02:31:44.459Z,70.77
2023-05-03T02:34:13.603Z,70.66
2023-05-03T02:36:41.346Z,70.13
2023-05-03T02:39:09.052Z,68.65
2023-05-03T02:41:36.720Z,69.80
2023-05-03T02:44:04.539Z,68.63
2023-05-03T02:46:32.249Z,70.11
2023-05-03T02:48:59.980Z,69.24
2023-05-03T02:51:29.671Z,68.78
2023-05-03T02:53:57.381Z,66.58
2023-05-03T02:56:26.611Z,71.67
2023-05-03T02:58:54.348Z,71.16
2023-05-03T03:01:22.344Z,71.90
2023-05-03T03:03:50.408Z,71.27
2023-05-03T03:06:18.339Z,66.96
2023-05-03T03:08:47.469Z,66.74
2023-05-03T03:11:15.600Z,72.25
2023-05-03T03:13:43.332Z,69.12
2023-05-03T03:16:11.638Z,70.80
2023-05-03T03:18:39.419Z,71.94
2023-05-03T03:21:07.254Z,70.29
2023-05-03T03:23:34.919Z,69.28
2023-05-03T03:26:04.091Z,66.73
2023-05-03T03:28:32.592Z,65.77
2023-05-03T03:31:00.353Z,64.99
2023-05-03T03:33:28.093Z,67.00
2023-05-03T03:35:55.768Z,71.58
2023-05-03T03:38:23.421Z,70.04
2023-05-03T03:40:52.179Z,70.69
2023-05-03T03:43:21.321Z,68.31
2023-05-03T03:45:49.031Z,68.31
2023-05-03T03:48:17.011Z,68.07
2023-05-03T03:50:44.874Z,69.84
2023-05-03T03:53:12.707Z,69.41
2023-05-03T03:55:40.495Z,64.87
2023-05-03T03:58:08.395Z,64.07
2023-05-03T04:00:38.033Z,64.92
2023-05-03T04:03:07.783Z,65.88
2023-05-03T04:05:35.877Z,69.47
2023-05-03T04:08:03.621Z,70.27
2023-05-03T04:10:31.285Z,66.92
2023-05-03T04:12:58.948Z,68.64
2023-05-03T04:15:26.785Z,65.85
2023-05-03T04:17:55.957Z,67.32
2023-05-03T04:20:24.006Z,66.34
2023-05-03T04:22:52.013Z,70.31
2023-05-03T04:25:19.960Z,71.76
2023-05-03T04:27:48.916Z,69.34
2023-05-03T04:30:17.563Z,69.22
2023-05-03T04:32:45.333Z,70.15
2023-05-03T04:35:14.417Z,69.47
2023-05-03T04:37:42.797Z,67.50
2023-05-03T04:40:12.482Z,64.86
2023-05-03T04:42:41.167Z,66.68
2023-05-03T04:45:10.932Z,64.15
2023-05-03T04:47:38.685Z,66.52
2023-05-03T04:50:08.616Z,65.97
2023-05-03T04:52:37.857Z,65.48
2023-05-03T04:55:06.492Z,70.11
2023-05-03T04:57:35.170Z,67.46
2023-05-03T05:00:04.532Z,67.30
2023-05-03T05:02:32.426Z,67.23
2023-05-03T05:05:00.206Z,66.01
2023-05-03T05:07:27.868Z,64.77
2023-05-03T05:09:56.972Z,66.36
2023-05-03T05:12:24.698Z,66.39
2023-05-03T05:14:52.355Z,66.05
2023-05-03T05:17:20.333Z,65.80
2023-05-03T05:19:48.078Z,62.58
2023-05-03T05:22:35.980Z,62.93
2023-05-03T05:25:05.812Z,63.59
2023-05-03T05:27:33.605Z,62.58
2023-05-03T05:30:01.594Z,64.99
2023-05-03T05:32:30.006Z,62.92
2023-05-03T05:34:57.818Z,63.96
2023-05-03T05:37:26.196Z,62.78
2023-05-03T05:39:54.418Z,64.00
2023-05-03T05:42:23.618Z,63.82
2023-05-03T05:44:52.438Z,65.88
2023-05-03T05:47:20.358Z,64.65
2023-05-03T05:49:48.299Z,64.62
2023-05-03T05:52:18.262Z,66.58
2023-05-03T05:54:45.959Z,67.78
2023-05-03T05:57:14.154Z,67.15
2023-05-03T05:59:43.282Z,63.59
2023-05-03T06:02:16.975Z,62.51
2023-05-03T06:04:45.010Z,64.19
2023-05-03T06:07:12.801Z,63.55
2023-05-03T06:09:40.497Z,61.97
2023-05-03T06:12:08.501Z,65.65
2023-05-03T06:14:36.512Z,66.11
2023-05-03T06:17:05.707Z,65.84
2023-05-03T06:19:33.435Z,64.60
2023-05-03T06:22:01.154Z,66.03
2023-05-03T06:24:31.571Z,68.75
2023-05-03T06:27:00.197Z,63.64
2023-05-03T06:29:28.401Z,66.06
2023-05-03T06:31:56.134Z,63.59
2023-05-03T06:34:25.281Z,64.18
2023-05-03T06:36:53.179Z,67.32
2023-05-03T06:39:21.052Z,70.70
2023-05-03T06:41:48.861Z,70.32
2023-05-03T06:44:16.557Z,67.52
2023-05-03T06:46:44.335Z,67.58
2023-05-03T06:49:12.226Z,67.37
2023-05-03T06:51:41.444Z,67.11
2023-05-03T06:54:09.895Z,65.63
2023-05-03T06:56:38.159Z,68.61
2023-05-03T06:59:16.566Z,65.66
2023-05-03T07:01:44.363Z,67.05
2023-05-03T07:04:12.389Z,63.26
2023-05-03T07:06:55.526Z,62.47
2023-05-03T07:09:39.320Z,61.75
2023-05-03T07:12:10.353Z,55.69
2023-05-03T07:14:38.382Z,57.80
2023-05-03T07:17:06.109Z,55.56
2023-05-03T07:19:33.946Z,58.45
2023-05-03T07:22:03.621Z,60.61
2023-05-03T07:24:31.324Z,62.22
2023-05-03T07:26:59.260Z,59.53
2023-05-03T07:29:45.469Z,57.92
2023-05-03T07:32:13.519Z,56.76
2023-05-03T07:34:41.404Z,57.71
2023-05-03T07:37:10.628Z,54.90
2023-05-03T07:39:38.362Z,57.24
2023-05-03T07:42:06.356Z,55.41
2023-05-03T07:44:34.075Z,56.88
2023-05-03T07:47:01.952Z,53.75
2023-05-03T07:49:30.971Z,50.96
2023-05-03T07:51:59.884Z,56.38
2023-05-03T07:54:29.010Z,57.54
2023-05-03T07:59:45.212Z,57.94
2023-05-03T08:02:13.048Z,60.27
2023-05-03T08:04:41.313Z,56.26
2023-05-03T08:07:09.684Z,57.46
2023-05-03T08:09:38.755Z,57.20
2023-05-03T08:12:07.026Z,59.00
2023-05-03T08:14:34.977Z,57.27
2023-05-03T08:17:04.793Z,54.86
2023-05-03T08:19:34.536Z,55.88
2023-05-03T08:22:03.313Z,51.21
2023-05-03T08:24:31.104Z,54.73
2023-05-03T08:27:00.284Z,56.99
2023-05-03T08:29:27.962Z,51.66
2023-05-03T08:32:14.312Z,55.18
2023-05-03T08:34:42.294Z,52.66
2023-05-03T08:37:10.031Z,53.06
2023-05-03T08:39:37.715Z,55.08
2023-05-03T08:42:09.686Z,52.75
2023-05-03T08:44:39.576Z,53.61
2023-05-03T08:47:10.503Z,51.51
2023-05-03T08:49:38.990Z,48.57
2023-05-03T08:52:07.724Z,48.85
2023-05-03T08:54:35.482Z,51.30
2023-05-03T08:57:03.174Z,50.65
2023-05-03T09:02:18.215Z,47.99
2023-05-03T09:04:46.559Z,47.49
2023-05-03T09:07:18.521Z,52.35
2023-05-03T09:09:47.257Z,51.03
2023-05-03T09:12:36.571Z,47.53
2023-05-03T09:15:06.489Z,52.69
2023-05-03T09:17:35.720Z,51.35
2023-05-03T09:20:03.764Z,48.89
2023-05-03T09:22:34.015Z,53.46
2023-05-03T09:25:02.292Z,50.83
2023-05-03T09:27:38.905Z,52.62
2023-05-03T09:30:36.884Z,46.25
2023-05-03T09:33:22.077Z,49.34
2023-05-03T09:35:57.487Z,52.08
2023-05-03T09:38:37.783Z,50.29
2023-05-03T09:41:07.023Z,49.24
2023-05-03T09:43:34.998Z,52.11
2023-05-03T09:46:10.050Z,48.47
2023-05-03T09:48:39.792Z,45.89
2023-05-03T09:51:08.106Z,45.20
2023-05-03T09:53:36.876Z,48.86
2023-05-03T09:56:06.103Z,48.18
2023-05-03T09:58:35.289Z,49.19
2023-05-03T10:01:03.256Z,47.70
2023-05-03T10:06:24.553Z,47.50
2023-05-03T10:08:54.708Z,48.38
2023-05-03T10:11:25.370Z,47.89
2023-05-03T10:13:53.094Z,45.72
2023-05-03T10:16:24.588Z,45.13
2023-05-03T10:18:55.560Z,47.39
2023-05-03T10:21:33.167Z,46.54
2023-05-03T10:24:16.386Z,45.44
2023-05-03T10:26:46.445Z,45.11
2023-05-03T10:29:49.357Z,44.49
2023-05-03T10:35:53.217Z,47.34
2023-05-03T10:38:24.256Z,48.57
2023-05-03T10:40:52.517Z,46.10
2023-05-03T10:43:42.451Z,45.64
2023-05-03T10:46:12.081Z,46.82
2023-05-03T10:48:39.833Z,44.71
2023-05-03T10:51:33.604Z,43.36
2023-05-03T10:54:02.703Z,44.22
2023-05-03T10:56:30.536Z,47.60
2023-05-03T10:58:58.998Z,45.79
2023-05-03T11:01:28.345Z,46.43
2023-05-03T11:04:03.583Z,46.81
2023-05-03T11:06:33.706Z,45.21
2023-05-03T11:09:04.869Z,42.01
2023-05-03T11:11:32.719Z,41.64
2023-05-03T11:14:00.452Z,42.91
2023-05-03T11:16:28.295Z,46.56
2023-05-03T11:18:56.300Z,41.85
2023-05-03T11:21:24.514Z,44.42
2023-05-03T11:23:52.205Z,45.00
2023-05-03T11:26:26.302Z,44.56
2023-05-03T11:28:55.199Z,43.31
2023-05-03T11:31:23.383Z,45.02
2023-05-03T11:33:51.534Z,44.77
2023-05-03T11:36:37.443Z,41.72
2023-05-03T11:39:06.856Z,42.16
2023-05-03T11:41:36.893Z,41.88
2023-05-03T11:44:16.324Z,40.42
2023-05-03T11:46:45.626Z,43.86
2023-05-03T11:49:18.892Z,41.00
2023-05-03T11:54:33.407Z,42.58
2023-05-03T11:57:13.450Z,42.76
2023-05-03T11:59:41.902Z,40.95
2023-05-03T12:02:11.797Z,43.39
2023-05-03T12:04:42.953Z,43.46
2023-05-03T12:07:13.380Z,41.24
2023-05-03T12:09:44.738Z,39.76
2023-05-03T12:12:26.211Z,38.80
2023-05-03T12:14:59.285Z,43.67
2023-05-03T12:17:38.814Z,39.94
2023-05-03T12:21:03.058Z,43.28
2023-05-03T12:23:09.854Z,39.77
2023-05-03T12:25:39.558Z,37.87
2023-05-03T12:28:19.422Z,40.01
2023-05-03T12:30:48.996Z,41.85
2023-05-03T12:33:22.048Z,40.74
2023-05-03T12:35:53.445Z,41.02
2023-05-03T12:38:23.912Z,39.00
2023-05-03T12:40:53.263Z,39.19
2023-05-03T12:43:22.856Z,41.34
2023-05-03T12:46:01.208Z,37.57
2023-05-03T12:48:38.722Z,38.61
2023-05-03T12:51:19.457Z,39.13
2023-05-03T12:53:54.121Z,36.22
2023-05-03T12:56:40.133Z,38.92
2023-05-03T13:06:43.862Z,37.94
2023-05-03T13:09:19.149Z,38.35
2023-05-03T13:11:50.206Z,37.48
2023-05-03T13:14:19.595Z,36.92
2023-05-03T13:16:47.757Z,32.93
2023-05-03T13:19:16.582Z,32.54
2023-05-03T13:21:44.217Z,37.04
2023-05-03T13:24:11.929Z,36.07
2023-05-03T13:26:39.535Z,36.34
2023-05-03T13:29:07.493Z,36.85
2023-05-03T13:31:36.565Z,35.49
2023-05-03T13:34:04.404Z,35.69
2023-05-03T13:36:33.399Z,36.54
2023-05-03T13:39:01.898Z,34.28
2023-05-03T13:41:29.634Z,35.14
2023-05-03T13:43:57.464Z,37.07
2023-05-03T13:46:25.402Z,36.22
2023-05-03T13:48:56.416Z,33.58
2023-05-03T13:51:25.088Z,34.83
2023-05-03T13:53:53.122Z,33.61
2023-05-03T13:56:21.670Z,32.01
2023-05-03T13:58:49.433Z,31.03
2023-05-03T14:01:17.933Z,33.19
2023-05-03T14:03:45.961Z,32.92
2023-05-03T14:06:15.680Z,33.93
2023-05-03T14:08:43.586Z,35.00
2023-05-03T14:11:14.103Z,33.39
2023-05-03T14:13:55.468Z,33.46
2023-05-03T14:18:55.698Z,32.94
2023-05-03T14:21:25.050Z,33.95
2023-05-03T14:23:54.174Z,31.98
2023-05-03T14:26:23.993Z,31.20
2023-05-03T14:28:52.014Z,30.07
2023-05-03T14:31:19.758Z,34.64
2023-05-03T14:33:48.120Z,32.19
2023-05-03T14:36:15.872Z,33.01
2023-05-03T14:38:44.940Z,33.25
2023-05-03T14:41:12.723Z,31.44
2023-05-03T14:43:40.430Z,29.50
2023-05-03T14:46:09.075Z,29.92
2023-05-03T14:48:38.121Z,29.32
2023-05-03T14:51:06.553Z,28.80
2023-05-03T14:53:35.630Z,30.93
2023-05-03T14:56:04.981Z,31.47
2023-05-03T14:58:33.225Z,33.06
2023-05-03T15:01:01.179Z,30.82
2023-05-03T15:03:28.968Z,30.79
2023-05-03T15:05:56.683Z,28.88
2023-05-03T15:08:24.484Z,29.29
2023-05-03T15:10:52.532Z,30.63
2023-05-03T15:13:22.206Z,32.32
2023-05-03T15:15:50.058Z,30.82
2023-05-03T15:18:20.306Z,28.49
2023-05-03T15:20:48.110Z,27.05
2023-05-03T15:23:16.055Z,28.89
2023-05-03T15:25:43.776Z,31.34
2023-05-03T15:28:11.531Z,30.64
2023-05-03T15:30:40.622Z,30.45
2023-05-03T15:33:10.974Z,27.72
2023-05-03T15:35:41.592Z,25.44
2023-05-03T15:38:09.575Z,26.42
2023-05-03T15:40:52.593Z,26.36
2023-05-03T15:43:20.206Z,26.90
2023-05-03T15:45:49.422Z,28.78
2023-05-03T15:48:17.171Z,27.97
2023-05-03T15:50:44.908Z,28.16
2023-05-03T15:53:12.565Z,27.10
2023-05-03T15:55:40.308Z,30.25
2023-05-03T15:58:09.276Z,32.01
2023-05-03T16:00:46.889Z,29.59
2023-05-03T16:03:15.992Z,32.28
2023-05-03T16:05:44.951Z,32.44
2023-05-03T16:08:12.811Z,31.31
2023-05-03T16:10:40.609Z,32.31
2023-05-03T16:13:14.636Z,31.45
2023-05-03T16:15:42.565Z,30.08
2023-05-03T16:18:11.707Z,26.25
2023-05-03T16:20:41.346Z,26.77
2023-05-03T16:23:09.273Z,27.45
2023-05-03T16:25:37.020Z,29.21
2023-05-03T16:28:05.349Z,30.11
2023-05-03T16:30:33.712Z,30.26
2023-05-03T16:33:02.362Z,31.24
2023-05-03T16:35:30.291Z,30.14
2023-05-03T16:37:59.356Z,31.46
2023-05-03T16:40:40.590Z,30.98
2023-05-03T16:43:08.788Z,32.93
2023-05-03T16:45:37.641Z,31.66
2023-05-03T16:48:07.955Z,33.61
2023-05-03T16:50:37.197Z,34.38
2023-05-03T16:53:06.285Z,35.34
2023-05-03T16:55:33.940Z,35.82
2023-05-03T16:58:01.675Z,35.15
2023-05-03T17:00:30.436Z,37.38
2023-05-03T17:02:58.212Z,37.43
2023-05-03T17:05:32.729Z,37.74
2023-05-03T17:08:01.053Z,36.68
2023-05-03T17:10:31.507Z,39.43
2023-05-03T17:13:01.123Z,40.89
2023-05-03T17:15:29.076Z,38.94
2023-05-03T17:17:56.754Z,40.46
2023-05-03T17:20:24.399Z,40.42
2023-05-03T17:22:52.146Z,41.28
2023-05-03T17:25:20.051Z,41.54
2023-05-03T17:27:51.718Z,41.04
2023-05-03T17:30:21.282Z,41.56
2023-05-03T17:32:49.563Z,39.31
2023-05-03T17:35:17.346Z,37.92
2023-05-03T17:37:46.197Z,38.63
2023-05-03T17:40:14.531Z,41.10
2023-05-03T17:42:42.187Z,41.34
2023-05-03T17:45:12.771Z,39.99
2023-05-03T17:47:40.438Z,41.36
2023-05-03T17:50:09.989Z,42.07
2023-05-03T17:52:37.795Z,42.66
2023-05-03T17:55:06.459Z,41.40
2023-05-03T17:57:34.128Z,42.17
2023-05-03T18:00:02.166Z,44.97
2023-05-03T18:02:40.957Z,42.20
2023-05-03T18:05:09.354Z,42.77
2023-05-03T18:07:37.120Z,43.53
2023-05-03T18:10:07.140Z,43.18
2023-05-03T18:12:34.951Z,44.64
2023-05-03T18:15:02.641Z,44.57
2023-05-03T18:17:31.100Z,45.61
2023-05-03T18:20:00.597Z,43.50
2023-05-03T18:22:28.947Z,46.23
2023-05-03T18:24:59.087Z,45.88
2023-05-03T18:27:26.760Z,45.92
2023-05-03T18:29:54.543Z,45.70
2023-05-03T18:32:24.253Z,45.72
2023-05-03T18:34:52.114Z,47.33
2023-05-03T18:37:24.434Z,46.69
2023-05-03T18:39:52.660Z,48.79
2023-05-03T18:42:24.164Z,47.76
2023-05-03T18:44:52.128Z,49.56
2023-05-03T18:47:21.498Z,50.70
2023-05-03T18:49:52.828Z,49.81
2023-05-03T18:52:22.387Z,51.40
2023-05-03T18:54:50.973Z,50.65
2023-05-03T18:57:18.800Z,50.13
2023-05-03T18:59:59.319Z,50.73
2023-05-03T19:02:30.750Z,49.62
2023-05-03T19:04:58.916Z,50.65
2023-05-03T19:07:28.061Z,50.46
2023-05-03T19:09:56.050Z,50.34
2023-05-03T19:12:23.801Z,50.15
2023-05-03T19:14:51.492Z,50.69
2023-05-03T19:17:19.288Z,50.98
2023-05-03T19:19:48.956Z,50.65
2023-05-03T19:22:16.672Z,50.25
2023-05-03T19:24:46.020Z,50.13
2023-05-03T19:27:13.790Z,50.67
2023-05-03T19:29:41.460Z,51.12
2023-05-03T19:32:09.441Z,51.72
2023-05-03T19:34:37.212Z,51.28
2023-05-03T19:37:05.526Z,52.49
2023-05-03T19:39:35.639Z,53.43
2023-05-03T19:42:05.015Z,53.08
2023-05-03T19:44:33.402Z,51.67
2023-05-03T19:47:01.229Z,52.41
2023-05-03T19:49:29.145Z,52.31
2023-05-03T19:51:56.829Z,52.22
2023-05-03T19:54:24.582Z,52.83
2023-05-03T19:56:52.563Z,53.71
2023-05-03T19:59:21.647Z,53.17
2023-05-03T20:01:49.573Z,53.39
2023-05-03T20:04:17.340Z,52.28
2023-05-03T20:06:45.109Z,54.42
2023-05-03T20:09:12.868Z,54.31
2023-05-03T20:14:16.630Z,53.50
2023-05-03T20:16:45.854Z,53.14
2023-05-03T20:19:13.867Z,52.47
2023-05-03T20:21:41.728Z,53.73
2023-05-03T20:24:11.259Z,53.33
2023-05-03T20:26:39.625Z,52.86
2023-05-03T20:29:07.334Z,53.78
2023-05-03T20:31:35.413Z,53.41
2023-05-03T20:34:04.554Z,53.44
2023-05-03T20:36:32.906Z,54.75
2023-05-03T20:39:00.692Z,55.42
2023-05-03T20:41:28.620Z,54.81
2023-05-03T20:43:56.365Z,55.07
2023-05-03T20:46:24.391Z,55.32
2023-05-03T20:48:52.215Z,55.35
2023-05-03T20:51:21.616Z,54.37
2023-05-03T20:53:49.357Z,55.10
2023-05-03T20:56:17.537Z,54.32
2023-05-03T20:58:46.263Z,55.46
2023-05-03T21:01:14.425Z,55.37
2023-05-03T21:03:42.466Z,55.11
2023-05-03T21:06:10.445Z,55.87
2023-05-03T21:08:40.031Z,55.49
2023-05-03T21:11:08.429Z,55.63
2023-05-03T21:13:36.208Z,57.87
2023-05-03T21:16:04.298Z,56.82
2023-05-03T21:18:32.057Z,56.17
2023-05-03T21:20:59.762Z,57.59
2023-05-03T21:23:27.602Z,56.57
2023-05-03T21:25:57.126Z,56.03
2023-05-03T21:28:24.818Z,56.70
2023-05-03T21:30:55.063Z,56.27
2023-05-03T21:33:23.473Z,57.83
2023-05-03T21:35:51.209Z,54.90
2023-05-03T21:38:37.368Z,55.57
2023-05-03T21:41:07.691Z,57.08
2023-05-03T21:43:36.737Z,56.82
2023-05-03T21:46:07.718Z,56.89
2023-05-03T21:48:35.557Z,55.96
2023-05-03T21:51:03.537Z,55.91
2023-05-03T21:53:31.987Z,56.28
2023-05-03T21:55:59.715Z,57.63
2023-05-03T22:01:04.234Z,57.97
2023-05-03T22:03:32.245Z,58.65
2023-05-03T22:06:09.425Z,57.89
2023-05-03T22:08:37.556Z,57.83
2023-05-03T22:11:06.908Z,58.87
2023-05-03T22:13:50.268Z,58.81
2023-05-03T22:16:27.544Z,59.07
2023-05-03T22:18:55.733Z,58.51
2023-05-03T22:21:23.444Z,59.66
2023-05-03T22:23:51.241Z,57.93
2023-05-03T22:26:18.969Z,58.55
2023-05-03T22:28:46.701Z,60.35
2023-05-03T22:31:14.786Z,59.64
2023-05-03T22:33:45.042Z,60.00
2023-05-03T22:36:14.550Z,60.03
2023-05-03T22:38:43.239Z,60.16
2023-05-03T22:41:11.950Z,60.78
2023-05-03T22:43:39.724Z,59.97
2023-05-03T22:46:07.894Z,60.96
2023-05-03T22:48:36.231Z,59.75
2023-05-03T22:51:06.230Z,61.37
2023-05-03T22:53:33.996Z,62.35
2023-05-03T22:56:04.320Z,61.89
2023-05-03T22:58:32.268Z,60.76
2023-05-03T23:01:00.231Z,59.97
2023-05-03T23:03:28.184Z,59.50
2023-05-03T23:05:56.178Z,61.15
2023-05-03T23:08:25.374Z,59.18
2023-05-03T23:10:54.194Z,59.47
2023-05-03T23:13:44.441Z,59.80
2023-05-03T23:16:10.703Z,58.83
2023-05-03T23:21:21.526Z,58.69
2023-05-03T23:23:50.626Z,59.41
2023-05-03T23:26:18.301Z,59.76
2023-05-03T23:28:46.366Z,58.90
2023-05-03T23:31:14.552Z,59.68
2023-05-03T23:33:42.801Z,59.40
2023-05-03T23:36:10.713Z,58.30
2023-05-03T23:38:38.513Z,59.27
2023-05-03T23:41:07.594Z,59.54
2023-05-03T23:43:35.341Z,58.20
2023-05-03T23:46:03.063Z,59.16
2023-05-03T23:48:31.549Z,60.06
2023-05-03T23:50:59.405Z,59.28
2023-05-03T23:53:27.085Z,58.64
2023-05-03T23:55:54.827Z,58.42
2023-05-03T23:58:23.962Z,58.53
